sensor_id;sensor_type;location;lat;lon;timestamp;P1;durP1;ratioP1;P2;durP2;ratioP2
73776;SDS011;62088;50.240;2.696;2023-02-17T00:01:11;9.18;;;5.43;;
73776;SDS011;62088;50.240;2.696;2023-02-17T00:03:41;8.57;;;5.50;;
73776;SDS011;62088;50.240;2.696;2023-02-17T00:06:09;8.15;;;5.88;;
73776;SDS011;62088;50.240;2.696;2023-02-17T00:08:37;8.10;;;5.70;;
73776;SDS011;62088;50.240;2.696;2023-02-17T00:11:04;8.50;;;6.07;;
73776;SDS011;62088;50.240;2.696;2023-02-17T00:13:31;9.10;;;5.50;;
73776;SDS011;62088;50.240;2.696;2023-02-17T00:15:58;8.07;;;6.05;;
73776;SDS011;62088;50.240;2.696;2023-02-17T00:18:25;9.60;;;5.68;;
73776;SDS011;62088;50.240;2.696;2023-02-17T00:20:52;9.95;;;5.97;;
73776;SDS011;62088;50.240;2.696;2023-02-17T00:23:19;8.77;;;5.95;;
73776;SDS011;62088;50.240;2.696;2023-02-17T00:25:46;7.78;;;6.13;;
73776;SDS011;62088;50.240;2.696;2023-02-17T00:28:13;11.82;;;6.15;;
73776;SDS011;62088;50.240;2.696;2023-02-17T00:30:41;9.57;;;6.20;;
73776;SDS011;62088;50.240;2.696;2023-02-17T00:33:08;8.88;;;6.13;;
73776;SDS011;62088;50.240;2.696;2023-02-17T00:35:37;9.15;;;6.70;;
73776;SDS011;62088;50.240;2.696;2023-02-17T00:38:07;12.02;;;6.47;;
73776;SDS011;62088;50.240;2.696;2023-02-17T00:40:34;9.10;;;5.95;;
73776;SDS011;62088;50.240;2.696;2023-02-17T00:43:01;11.25;;;6.10;;
73776;SDS011;62088;50.240;2.696;2023-02-17T00:45:28;9.50;;;6.50;;
73776;SDS011;62088;50.240;2.696;2023-02-17T00:47:55;10.18;;;6.18;;
73776;SDS011;62088;50.240;2.696;2023-02-17T00:50:22;10.35;;;6.60;;
73776;SDS011;62088;50.240;2.696;2023-02-17T00:52:49;11.73;;;6.55;;
73776;SDS011;62088;50.240;2.696;2023-02-17T00:55:16;11.43;;;6.88;;
73776;SDS011;62088;50.240;2.696;2023-02-17T00:57:43;13.20;;;6.60;;
73776;SDS011;62088;50.240;2.696;2023-02-17T01:00:10;11.00;;;6.55;;
73776;SDS011;62088;50.240;2.696;2023-02-17T01:02:38;11.82;;;6.10;;
73776;SDS011;62088;50.240;2.696;2023-02-17T01:05:05;11.18;;;6.45;;
73776;SDS011;62088;50.240;2.696;2023-02-17T01:07:32;12.57;;;6.80;;
73776;SDS011;62088;50.240;2.696;2023-02-17T01:09:59;11.88;;;6.05;;
73776;SDS011;62088;50.240;2.696;2023-02-17T01:12:26;10.07;;;6.43;;
73776;SDS011;62088;50.240;2.696;2023-02-17T01:14:53;9.07;;;6.32;;
73776;SDS011;62088;50.240;2.696;2023-02-17T01:17:22;10.43;;;6.20;;
73776;SDS011;62088;50.240;2.696;2023-02-17T01:19:49;8.77;;;6.32;;
73776;SDS011;62088;50.240;2.696;2023-02-17T01:22:16;8.70;;;6.43;;
73776;SDS011;62088;50.240;2.696;2023-02-17T01:24:43;8.88;;;6.18;;
73776;SDS011;62088;50.240;2.696;2023-02-17T01:27:10;9.57;;;6.75;;
73776;SDS011;62088;50.240;2.696;2023-02-17T01:29:37;11.18;;;6.57;;
73776;SDS011;62088;50.240;2.696;2023-02-17T01:32:04;9.27;;;6.75;;
73776;SDS011;62088;50.240;2.696;2023-02-17T01:34:31;9.15;;;6.28;;
73776;SDS011;62088;50.240;2.696;2023-02-17T01:36:58;9.45;;;6.68;;
73776;SDS011;62088;50.240;2.696;2023-02-17T01:39:25;9.30;;;6.65;;
73776;SDS011;62088;50.240;2.696;2023-02-17T01:41:52;10.05;;;6.03;;
73776;SDS011;62088;50.240;2.696;2023-02-17T01:44:20;11.23;;;6.72;;
73776;SDS011;62088;50.240;2.696;2023-02-17T01:46:50;11.90;;;6.78;;
73776;SDS011;62088;50.240;2.696;2023-02-17T01:49:29;8.25;;;6.32;;
73776;SDS011;62088;50.240;2.696;2023-02-17T01:52:14;9.32;;;6.50;;
73776;SDS011;62088;50.240;2.696;2023-02-17T01:54:48;11.48;;;6.20;;
73776;SDS011;62088;50.240;2.696;2023-02-17T01:57:21;10.35;;;6.63;;
73776;SDS011;62088;50.240;2.696;2023-02-17T01:59:51;10.98;;;7.20;;
73776;SDS011;62088;50.240;2.696;2023-02-17T02:02:19;9.45;;;6.40;;
73776;SDS011;62088;50.240;2.696;2023-02-17T02:04:48;11.80;;;7.57;;
73776;SDS011;62088;50.240;2.696;2023-02-17T02:07:20;10.45;;;6.60;;
73776;SDS011;62088;50.240;2.696;2023-02-17T02:09:55;12.48;;;6.68;;
73776;SDS011;62088;50.240;2.696;2023-02-17T02:12:36;10.18;;;6.63;;
73776;SDS011;62088;50.240;2.696;2023-02-17T02:15:16;10.15;;;6.55;;
73776;SDS011;62088;50.240;2.696;2023-02-17T02:23:33;10.85;;;6.50;;
73776;SDS011;62088;50.240;2.696;2023-02-17T02:29:40;9.38;;;6.43;;
73776;SDS011;62088;50.240;2.696;2023-02-17T02:40:45;11.70;;;7.05;;
73776;SDS011;62088;50.240;2.696;2023-02-17T02:43:17;9.50;;;6.90;;
73776;SDS011;62088;50.240;2.696;2023-02-17T02:45:44;10.05;;;6.70;;
73776;SDS011;62088;50.240;2.696;2023-02-17T02:48:11;9.60;;;6.38;;
73776;SDS011;62088;50.240;2.696;2023-02-17T02:58:34;11.65;;;6.72;;
73776;SDS011;62088;50.240;2.696;2023-02-17T03:06:48;9.55;;;6.60;;
73776;SDS011;62088;50.240;2.696;2023-02-17T03:09:24;15.55;;;7.18;;
73776;SDS011;62088;50.240;2.696;2023-02-17T03:11:53;8.40;;;6.07;;
73776;SDS011;62088;50.240;2.696;2023-02-17T03:14:23;10.60;;;6.53;;
73776;SDS011;62088;50.240;2.696;2023-02-17T03:16:52;10.75;;;6.68;;
73776;SDS011;62088;50.240;2.696;2023-02-17T03:19:22;11.27;;;7.00;;
73776;SDS011;62088;50.240;2.696;2023-02-17T03:22:07;13.43;;;6.78;;
73776;SDS011;62088;50.240;2.696;2023-02-17T03:24:46;12.50;;;6.72;;
73776;SDS011;62088;50.240;2.696;2023-02-17T03:27:14;11.70;;;7.57;;
73776;SDS011;62088;50.240;2.696;2023-02-17T03:29:41;10.43;;;7.03;;
73776;SDS011;62088;50.240;2.696;2023-02-17T03:32:08;10.85;;;7.07;;
73776;SDS011;62088;50.240;2.696;2023-02-17T03:34:35;9.50;;;7.20;;
73776;SDS011;62088;50.240;2.696;2023-02-17T03:37:02;12.73;;;7.57;;
73776;SDS011;62088;50.240;2.696;2023-02-17T03:39:29;11.02;;;7.38;;
73776;SDS011;62088;50.240;2.696;2023-02-17T03:41:57;10.38;;;7.13;;
73776;SDS011;62088;50.240;2.696;2023-02-17T03:44:24;13.40;;;7.80;;
73776;SDS011;62088;50.240;2.696;2023-02-17T03:46:51;11.77;;;7.05;;
73776;SDS011;62088;50.240;2.696;2023-02-17T03:49:18;10.68;;;7.57;;
73776;SDS011;62088;50.240;2.696;2023-02-17T03:51:45;13.00;;;7.47;;
73776;SDS011;62088;50.240;2.696;2023-02-17T03:54:12;10.43;;;7.55;;
73776;SDS011;62088;50.240;2.696;2023-02-17T03:56:39;11.57;;;7.38;;
73776;SDS011;62088;50.240;2.696;2023-02-17T03:59:06;11.60;;;7.70;;
73776;SDS011;62088;50.240;2.696;2023-02-17T04:01:33;11.00;;;7.20;;
73776;SDS011;62088;50.240;2.696;2023-02-17T04:04:01;9.48;;;6.95;;
73776;SDS011;62088;50.240;2.696;2023-02-17T04:06:28;9.73;;;7.05;;
73776;SDS011;62088;50.240;2.696;2023-02-17T04:08:55;10.82;;;7.00;;
73776;SDS011;62088;50.240;2.696;2023-02-17T04:11:22;12.27;;;7.35;;
73776;SDS011;62088;50.240;2.696;2023-02-17T04:13:49;11.50;;;7.03;;
73776;SDS011;62088;50.240;2.696;2023-02-17T04:16:16;10.73;;;7.05;;
73776;SDS011;62088;50.240;2.696;2023-02-17T04:18:43;10.68;;;7.03;;
73776;SDS011;62088;50.240;2.696;2023-02-17T04:21:10;10.90;;;7.20;;
73776;SDS011;62088;50.240;2.696;2023-02-17T04:23:38;12.15;;;7.03;;
73776;SDS011;62088;50.240;2.696;2023-02-17T04:26:06;9.15;;;6.70;;
73776;SDS011;62088;50.240;2.696;2023-02-17T04:28:36;10.93;;;7.45;;
73776;SDS011;62088;50.240;2.696;2023-02-17T04:31:04;9.63;;;6.82;;
73776;SDS011;62088;50.240;2.696;2023-02-17T04:33:32;12.93;;;7.18;;
73776;SDS011;62088;50.240;2.696;2023-02-17T04:36:00;11.10;;;6.93;;
73776;SDS011;62088;50.240;2.696;2023-02-17T04:38:27;10.55;;;6.93;;
73776;SDS011;62088;50.240;2.696;2023-02-17T04:40:56;10.52;;;7.07;;
73776;SDS011;62088;50.240;2.696;2023-02-17T04:43:25;10.80;;;7.03;;
73776;SDS011;62088;50.240;2.696;2023-02-17T04:45:53;11.90;;;7.22;;
73776;SDS011;62088;50.240;2.696;2023-02-17T04:48:21;11.73;;;7.50;;
73776;SDS011;62088;50.240;2.696;2023-02-17T04:50:48;13.35;;;7.30;;
73776;SDS011;62088;50.240;2.696;2023-02-17T04:53:15;9.95;;;7.28;;
73776;SDS011;62088;50.240;2.696;2023-02-17T04:55:43;11.60;;;6.85;;
73776;SDS011;62088;50.240;2.696;2023-02-17T04:58:12;10.27;;;7.15;;
73776;SDS011;62088;50.240;2.696;2023-02-17T05:00:39;10.85;;;7.38;;
73776;SDS011;62088;50.240;2.696;2023-02-17T05:03:06;12.10;;;7.60;;
73776;SDS011;62088;50.240;2.696;2023-02-17T05:05:34;9.13;;;6.82;;
73776;SDS011;62088;50.240;2.696;2023-02-17T05:08:01;13.88;;;7.28;;
73776;SDS011;62088;50.240;2.696;2023-02-17T05:10:28;11.02;;;6.90;;
73776;SDS011;62088;50.240;2.696;2023-02-17T05:12:55;11.52;;;6.80;;
73776;SDS011;62088;50.240;2.696;2023-02-17T05:15:22;10.50;;;6.97;;
73776;SDS011;62088;50.240;2.696;2023-02-17T05:17:49;9.55;;;6.05;;
73776;SDS011;62088;50.240;2.696;2023-02-17T05:20:16;11.45;;;6.70;;
73776;SDS011;62088;50.240;2.696;2023-02-17T05:22:43;10.27;;;6.13;;
73776;SDS011;62088;50.240;2.696;2023-02-17T05:25:10;10.13;;;5.93;;
73776;SDS011;62088;50.240;2.696;2023-02-17T05:27:37;9.77;;;5.70;;
73776;SDS011;62088;50.240;2.696;2023-02-17T05:30:04;9.55;;;5.65;;
73776;SDS011;62088;50.240;2.696;2023-02-17T05:32:32;10.07;;;5.40;;
73776;SDS011;62088;50.240;2.696;2023-02-17T05:34:59;9.10;;;5.35;;
73776;SDS011;62088;50.240;2.696;2023-02-17T05:37:26;8.63;;;5.00;;
73776;SDS011;62088;50.240;2.696;2023-02-17T05:39:53;8.95;;;5.20;;
73776;SDS011;62088;50.240;2.696;2023-02-17T05:42:20;8.50;;;5.07;;
73776;SDS011;62088;50.240;2.696;2023-02-17T05:44:47;7.72;;;4.53;;
73776;SDS011;62088;50.240;2.696;2023-02-17T05:47:14;7.32;;;4.43;;
73776;SDS011;62088;50.240;2.696;2023-02-17T05:49:41;10.07;;;4.97;;
73776;SDS011;62088;50.240;2.696;2023-02-17T05:52:08;6.93;;;4.47;;
73776;SDS011;62088;50.240;2.696;2023-02-17T05:54:35;7.13;;;4.05;;
73776;SDS011;62088;50.240;2.696;2023-02-17T05:57:02;7.88;;;4.22;;
73776;SDS011;62088;50.240;2.696;2023-02-17T05:59:29;7.68;;;3.90;;
73776;SDS011;62088;50.240;2.696;2023-02-17T06:01:56;7.63;;;4.57;;
73776;SDS011;62088;50.240;2.696;2023-02-17T06:04:23;8.40;;;4.20;;
73776;SDS011;62088;50.240;2.696;2023-02-17T06:06:50;8.68;;;4.13;;
73776;SDS011;62088;50.240;2.696;2023-02-17T06:09:17;7.47;;;4.45;;
73776;SDS011;62088;50.240;2.696;2023-02-17T06:11:44;7.22;;;4.35;;
73776;SDS011;62088;50.240;2.696;2023-02-17T06:14:11;7.65;;;5.13;;
73776;SDS011;62088;50.240;2.696;2023-02-17T06:16:38;7.95;;;4.43;;
73776;SDS011;62088;50.240;2.696;2023-02-17T06:19:05;8.88;;;4.57;;
73776;SDS011;62088;50.240;2.696;2023-02-17T06:21:32;7.53;;;4.28;;
73776;SDS011;62088;50.240;2.696;2023-02-17T06:23:59;6.47;;;4.40;;
73776;SDS011;62088;50.240;2.696;2023-02-17T06:26:26;8.23;;;4.38;;
73776;SDS011;62088;50.240;2.696;2023-02-17T06:28:53;8.10;;;4.13;;
73776;SDS011;62088;50.240;2.696;2023-02-17T06:31:20;7.13;;;4.35;;
73776;SDS011;62088;50.240;2.696;2023-02-17T06:33:47;6.75;;;3.90;;
73776;SDS011;62088;50.240;2.696;2023-02-17T06:36:14;7.55;;;4.13;;
73776;SDS011;62088;50.240;2.696;2023-02-17T06:38:41;6.05;;;4.22;;
73776;SDS011;62088;50.240;2.696;2023-02-17T06:41:08;8.02;;;4.47;;
73776;SDS011;62088;50.240;2.696;2023-02-17T06:43:35;7.07;;;4.25;;
73776;SDS011;62088;50.240;2.696;2023-02-17T06:46:02;8.43;;;4.53;;
73776;SDS011;62088;50.240;2.696;2023-02-17T06:48:30;6.95;;;4.07;;
73776;SDS011;62088;50.240;2.696;2023-02-17T06:50:58;6.40;;;4.30;;
73776;SDS011;62088;50.240;2.696;2023-02-17T06:53:26;6.15;;;4.00;;
73776;SDS011;62088;50.240;2.696;2023-02-17T06:55:53;7.13;;;4.07;;
73776;SDS011;62088;50.240;2.696;2023-02-17T06:58:20;6.97;;;4.30;;
73776;SDS011;62088;50.240;2.696;2023-02-17T07:00:47;6.25;;;3.80;;
73776;SDS011;62088;50.240;2.696;2023-02-17T07:03:14;6.60;;;3.40;;
73776;SDS011;62088;50.240;2.696;2023-02-17T07:05:41;5.05;;;3.15;;
73776;SDS011;62088;50.240;2.696;2023-02-17T07:08:08;7.70;;;3.53;;
73776;SDS011;62088;50.240;2.696;2023-02-17T07:10:36;6.47;;;3.72;;
73776;SDS011;62088;50.240;2.696;2023-02-17T07:13:03;6.22;;;3.60;;
73776;SDS011;62088;50.240;2.696;2023-02-17T07:15:30;7.10;;;3.22;;
73776;SDS011;62088;50.240;2.696;2023-02-17T07:17:57;5.00;;;3.08;;
73776;SDS011;62088;50.240;2.696;2023-02-17T07:20:24;6.82;;;3.50;;
73776;SDS011;62088;50.240;2.696;2023-02-17T07:22:51;6.53;;;3.50;;
73776;SDS011;62088;50.240;2.696;2023-02-17T07:25:18;7.65;;;3.28;;
73776;SDS011;62088;50.240;2.696;2023-02-17T07:27:45;7.53;;;3.50;;
73776;SDS011;62088;50.240;2.696;2023-02-17T07:30:12;5.95;;;3.33;;
73776;SDS011;62088;50.240;2.696;2023-02-17T07:32:40;6.47;;;3.53;;
73776;SDS011;62088;50.240;2.696;2023-02-17T07:35:08;5.85;;;2.92;;
73776;SDS011;62088;50.240;2.696;2023-02-17T07:37:35;7.13;;;3.10;;
73776;SDS011;62088;50.240;2.696;2023-02-17T07:40:03;6.50;;;3.20;;
73776;SDS011;62088;50.240;2.696;2023-02-17T07:42:30;6.75;;;2.85;;
73776;SDS011;62088;50.240;2.696;2023-02-17T07:44:58;6.68;;;2.90;;
73776;SDS011;62088;50.240;2.696;2023-02-17T07:47:24;6.70;;;3.00;;
73776;SDS011;62088;50.240;2.696;2023-02-17T07:49:51;6.65;;;3.15;;
73776;SDS011;62088;50.240;2.696;2023-02-17T07:52:18;7.47;;;3.03;;
73776;SDS011;62088;50.240;2.696;2023-02-17T07:54:45;8.18;;;3.20;;
73776;SDS011;62088;50.240;2.696;2023-02-17T07:57:12;5.53;;;3.05;;
73776;SDS011;62088;50.240;2.696;2023-02-17T07:59:39;8.00;;;3.35;;
73776;SDS011;62088;50.240;2.696;2023-02-17T08:02:08;5.03;;;2.70;;
73776;SDS011;62088;50.240;2.696;2023-02-17T08:04:37;6.07;;;2.60;;
73776;SDS011;62088;50.240;2.696;2023-02-17T08:07:04;6.32;;;2.63;;
73776;SDS011;62088;50.240;2.696;2023-02-17T08:09:31;5.20;;;2.20;;
73776;SDS011;62088;50.240;2.696;2023-02-17T08:12:17;5.72;;;1.95;;
73776;SDS011;62088;50.240;2.696;2023-02-17T08:15:04;4.75;;;2.10;;
73776;SDS011;62088;50.240;2.696;2023-02-17T08:17:33;3.78;;;1.88;;
73776;SDS011;62088;50.240;2.696;2023-02-17T08:20:00;4.65;;;2.00;;
73776;SDS011;62088;50.240;2.696;2023-02-17T08:22:34;4.88;;;1.70;;
73776;SDS011;62088;50.240;2.696;2023-02-17T08:25:02;5.63;;;2.20;;
73776;SDS011;62088;50.240;2.696;2023-02-17T08:27:31;3.60;;;1.75;;
73776;SDS011;62088;50.240;2.696;2023-02-17T08:29:58;4.38;;;1.98;;
73776;SDS011;62088;50.240;2.696;2023-02-17T08:32:26;4.43;;;2.15;;
73776;SDS011;62088;50.240;2.696;2023-02-17T08:34:55;5.95;;;2.35;;
73776;SDS011;62088;50.240;2.696;2023-02-17T08:37:23;4.65;;;1.90;;
73776;SDS011;62088;50.240;2.696;2023-02-17T08:39:50;4.90;;;2.03;;
73776;SDS011;62088;50.240;2.696;2023-02-17T08:42:17;4.53;;;1.85;;
73776;SDS011;62088;50.240;2.696;2023-02-17T08:44:45;7.15;;;1.98;;
73776;SDS011;62088;50.240;2.696;2023-02-17T08:47:12;4.38;;;1.95;;
73776;SDS011;62088;50.240;2.696;2023-02-17T08:49:39;4.93;;;1.90;;
73776;SDS011;62088;50.240;2.696;2023-02-17T08:52:06;4.80;;;1.80;;
73776;SDS011;62088;50.240;2.696;2023-02-17T08:54:35;5.63;;;1.95;;
73776;SDS011;62088;50.240;2.696;2023-02-17T08:57:02;4.88;;;1.80;;
73776;SDS011;62088;50.240;2.696;2023-02-17T08:59:29;5.10;;;1.90;;
73776;SDS011;62088;50.240;2.696;2023-02-17T09:01:57;4.47;;;1.73;;
73776;SDS011;62088;50.240;2.696;2023-02-17T09:04:24;5.15;;;1.85;;
73776;SDS011;62088;50.240;2.696;2023-02-17T09:06:52;3.92;;;1.77;;
73776;SDS011;62088;50.240;2.696;2023-02-17T09:09:22;7.05;;;2.40;;
73776;SDS011;62088;50.240;2.696;2023-02-17T09:11:55;5.05;;;1.73;;
73776;SDS011;62088;50.240;2.696;2023-02-17T09:14:23;5.88;;;2.25;;
73776;SDS011;62088;50.240;2.696;2023-02-17T09:16:50;6.05;;;2.20;;
73776;SDS011;62088;50.240;2.696;2023-02-17T09:19:18;6.35;;;2.20;;
73776;SDS011;62088;50.240;2.696;2023-02-17T09:21:46;4.28;;;2.15;;
73776;SDS011;62088;50.240;2.696;2023-02-17T09:24:14;6.00;;;2.28;;
73776;SDS011;62088;50.240;2.696;2023-02-17T09:26:41;4.43;;;2.17;;
73776;SDS011;62088;50.240;2.696;2023-02-17T09:29:09;6.38;;;2.15;;
73776;SDS011;62088;50.240;2.696;2023-02-17T09:31:36;5.30;;;1.98;;
73776;SDS011;62088;50.240;2.696;2023-02-17T09:34:03;5.93;;;1.92;;
73776;SDS011;62088;50.240;2.696;2023-02-17T09:36:32;3.75;;;1.70;;
73776;SDS011;62088;50.240;2.696;2023-02-17T09:39:05;6.30;;;1.85;;
73776;SDS011;62088;50.240;2.696;2023-02-17T09:44:23;4.97;;;1.80;;
73776;SDS011;62088;50.240;2.696;2023-02-17T09:46:54;3.80;;;1.85;;
73776;SDS011;62088;50.240;2.696;2023-02-17T09:50:12;4.05;;;1.73;;
73776;SDS011;62088;50.240;2.696;2023-02-17T09:55:21;4.28;;;1.80;;
73776;SDS011;62088;50.240;2.696;2023-02-17T10:00:59;3.70;;;1.80;;
73776;SDS011;62088;50.240;2.696;2023-02-17T10:03:29;5.13;;;1.92;;
73776;SDS011;62088;50.240;2.696;2023-02-17T10:11:24;4.32;;;1.90;;
73776;SDS011;62088;50.240;2.696;2023-02-17T10:14:15;4.43;;;1.90;;
73776;SDS011;62088;50.240;2.696;2023-02-17T10:16:59;6.38;;;1.80;;
73776;SDS011;62088;50.240;2.696;2023-02-17T10:22:23;3.38;;;1.40;;
73776;SDS011;62088;50.240;2.696;2023-02-17T10:24:51;3.35;;;1.58;;
73776;SDS011;62088;50.240;2.696;2023-02-17T10:27:22;3.30;;;1.60;;
73776;SDS011;62088;50.240;2.696;2023-02-17T10:41:08;3.83;;;1.27;;
73776;SDS011;62088;50.240;2.696;2023-02-17T10:43:40;7.97;;;1.60;;
73776;SDS011;62088;50.240;2.696;2023-02-17T10:46:08;3.92;;;1.30;;
73776;SDS011;62088;50.240;2.696;2023-02-17T10:48:39;5.18;;;1.30;;
73776;SDS011;62088;50.240;2.696;2023-02-17T10:51:13;7.35;;;1.42;;
73776;SDS011;62088;50.240;2.696;2023-02-17T10:53:50;7.88;;;1.70;;
73776;SDS011;62088;50.240;2.696;2023-02-17T10:56:25;2.85;;;1.00;;
73776;SDS011;62088;50.240;2.696;2023-02-17T10:59:01;5.88;;;1.30;;
73776;SDS011;62088;50.240;2.696;2023-02-17T11:01:29;3.50;;;1.15;;
73776;SDS011;62088;50.240;2.696;2023-02-17T11:04:08;3.70;;;1.38;;
73776;SDS011;62088;50.240;2.696;2023-02-17T11:06:49;7.07;;;1.67;;
73776;SDS011;62088;50.240;2.696;2023-02-17T11:09:25;4.53;;;1.30;;
73776;SDS011;62088;50.240;2.696;2023-02-17T11:12:01;4.88;;;1.30;;
73776;SDS011;62088;50.240;2.696;2023-02-17T11:14:35;4.13;;;1.20;;
73776;SDS011;62088;50.240;2.696;2023-02-17T11:17:11;2.58;;;1.05;;
73776;SDS011;62088;50.240;2.696;2023-02-17T11:19:58;2.65;;;1.13;;
73776;SDS011;62088;50.240;2.696;2023-02-17T11:22:35;3.03;;;1.33;;
73776;SDS011;62088;50.240;2.696;2023-02-17T11:25:17;4.13;;;1.30;;
73776;SDS011;62088;50.240;2.696;2023-02-17T11:27:50;4.20;;;1.40;;
73776;SDS011;62088;50.240;2.696;2023-02-17T11:30:18;5.57;;;1.30;;
73776;SDS011;62088;50.240;2.696;2023-02-17T11:32:46;5.10;;;1.45;;
73776;SDS011;62088;50.240;2.696;2023-02-17T11:35:24;2.65;;;1.20;;
73776;SDS011;62088;50.240;2.696;2023-02-17T11:38:13;3.65;;;1.17;;
73776;SDS011;62088;50.240;2.696;2023-02-17T11:43:26;2.80;;;1.15;;
73776;SDS011;62088;50.240;2.696;2023-02-17T11:45:59;5.95;;;1.13;;
73776;SDS011;62088;50.240;2.696;2023-02-17T11:57:28;2.65;;;1.20;;
73776;SDS011;62088;50.240;2.696;2023-02-17T12:06:00;1.73;;;0.70;;
73776;SDS011;62088;50.240;2.696;2023-02-17T12:20:01;2.73;;;0.90;;
73776;SDS011;62088;50.240;2.696;2023-02-17T12:22:45;1.90;;;0.75;;
73776;SDS011;62088;50.240;2.696;2023-02-17T12:25:38;1.40;;;0.45;;
73776;SDS011;62088;50.240;2.696;2023-02-17T12:36:22;2.75;;;0.98;;
73776;SDS011;62088;50.240;2.696;2023-02-17T12:41:39;7.28;;;0.70;;
73776;SDS011;62088;50.240;2.696;2023-02-17T12:44:18;1.88;;;0.68;;
73776;SDS011;62088;50.240;2.696;2023-02-17T12:46:49;1.55;;;0.75;;
73776;SDS011;62088;50.240;2.696;2023-02-17T12:49:22;2.28;;;0.93;;
73776;SDS011;62088;50.240;2.696;2023-02-17T12:51:57;1.60;;;0.70;;
73776;SDS011;62088;50.240;2.696;2023-02-17T12:54:32;2.47;;;0.70;;
73776;SDS011;62088;50.240;2.696;2023-02-17T12:57:12;2.45;;;0.90;;
73776;SDS011;62088;50.240;2.696;2023-02-17T12:59:43;2.50;;;1.00;;
73776;SDS011;62088;50.240;2.696;2023-02-17T13:02:16;2.80;;;0.90;;
73776;SDS011;62088;50.240;2.696;2023-02-17T13:04:49;2.47;;;0.73;;
73776;SDS011;62088;50.240;2.696;2023-02-17T13:07:21;2.53;;;0.88;;
73776;SDS011;62088;50.240;2.696;2023-02-17T13:09:52;1.90;;;0.73;;
73776;SDS011;62088;50.240;2.696;2023-02-17T13:14:49;3.08;;;0.73;;
73776;SDS011;62088;50.240;2.696;2023-02-17T13:22:39;1.92;;;0.60;;
73776;SDS011;62088;50.240;2.696;2023-02-17T13:25:27;4.00;;;1.25;;
73776;SDS011;62088;50.240;2.696;2023-02-17T13:27:58;3.38;;;1.05;;
73776;SDS011;62088;50.240;2.696;2023-02-17T13:30:29;3.03;;;1.10;;
73776;SDS011;62088;50.240;2.696;2023-02-17T13:33:06;2.15;;;0.80;;
73776;SDS011;62088;50.240;2.696;2023-02-17T13:35:46;3.35;;;1.05;;
73776;SDS011;62088;50.240;2.696;2023-02-17T13:38:35;3.22;;;1.10;;
73776;SDS011;62088;50.240;2.696;2023-02-17T13:41:04;2.85;;;1.10;;
73776;SDS011;62088;50.240;2.696;2023-02-17T13:43:39;4.00;;;1.10;;
73776;SDS011;62088;50.240;2.696;2023-02-17T13:46:08;3.97;;;1.02;;
73776;SDS011;62088;50.240;2.696;2023-02-17T13:48:40;3.20;;;0.90;;
73776;SDS011;62088;50.240;2.696;2023-02-17T13:51:20;2.78;;;0.90;;
73776;SDS011;62088;50.240;2.696;2023-02-17T13:53:51;4.05;;;1.10;;
73776;SDS011;62088;50.240;2.696;2023-02-17T13:56:23;2.38;;;0.90;;
73776;SDS011;62088;50.240;2.696;2023-02-17T13:59:08;4.30;;;1.00;;
73776;SDS011;62088;50.240;2.696;2023-02-17T14:01:44;2.92;;;1.20;;
73776;SDS011;62088;50.240;2.696;2023-02-17T14:04:20;5.90;;;1.20;;
73776;SDS011;62088;50.240;2.696;2023-02-17T14:06:52;4.50;;;1.30;;
73776;SDS011;62088;50.240;2.696;2023-02-17T14:09:24;4.85;;;1.55;;
73776;SDS011;62088;50.240;2.696;2023-02-17T14:11:53;3.35;;;1.30;;
73776;SDS011;62088;50.240;2.696;2023-02-17T14:14:28;4.13;;;1.40;;
73776;SDS011;62088;50.240;2.696;2023-02-17T14:19:43;3.53;;;1.20;;
73776;SDS011;62088;50.240;2.696;2023-02-17T14:22:32;4.13;;;1.20;;
73776;SDS011;62088;50.240;2.696;2023-02-17T14:25:01;4.53;;;1.50;;
73776;SDS011;62088;50.240;2.696;2023-02-17T14:27:44;5.03;;;1.75;;
73776;SDS011;62088;50.240;2.696;2023-02-17T14:30:13;3.85;;;1.40;;
73776;SDS011;62088;50.240;2.696;2023-02-17T14:33:03;3.90;;;1.20;;
73776;SDS011;62088;50.240;2.696;2023-02-17T14:35:33;3.50;;;1.42;;
73776;SDS011;62088;50.240;2.696;2023-02-17T14:38:18;3.30;;;1.20;;
73776;SDS011;62088;50.240;2.696;2023-02-17T14:40:57;2.78;;;1.00;;
73776;SDS011;62088;50.240;2.696;2023-02-17T14:43:26;2.97;;;1.10;;
73776;SDS011;62088;50.240;2.696;2023-02-17T14:45:53;4.35;;;0.90;;
73776;SDS011;62088;50.240;2.696;2023-02-17T14:48:20;5.40;;;1.20;;
73776;SDS011;62088;50.240;2.696;2023-02-17T14:50:47;3.35;;;0.95;;
73776;SDS011;62088;50.240;2.696;2023-02-17T14:58:33;3.00;;;1.00;;
73776;SDS011;62088;50.240;2.696;2023-02-17T15:01:00;4.38;;;0.85;;
73776;SDS011;62088;50.240;2.696;2023-02-17T15:03:27;4.32;;;1.02;;
73776;SDS011;62088;50.240;2.696;2023-02-17T15:05:54;3.63;;;1.00;;
73776;SDS011;62088;50.240;2.696;2023-02-17T15:08:24;3.03;;;0.80;;
73776;SDS011;62088;50.240;2.696;2023-02-17T15:10:58;3.70;;;1.00;;
73776;SDS011;62088;50.240;2.696;2023-02-17T15:13:25;3.30;;;1.00;;
73776;SDS011;62088;50.240;2.696;2023-02-17T15:15:53;3.13;;;0.93;;
73776;SDS011;62088;50.240;2.696;2023-02-17T15:18:20;5.38;;;1.30;;
73776;SDS011;62088;50.240;2.696;2023-02-17T15:20:48;2.03;;;0.75;;
73776;SDS011;62088;50.240;2.696;2023-02-17T15:23:20;5.53;;;0.90;;
73776;SDS011;62088;50.240;2.696;2023-02-17T15:25:50;3.47;;;1.10;;
73776;SDS011;62088;50.240;2.696;2023-02-17T15:28:20;4.10;;;0.98;;
73776;SDS011;62088;50.240;2.696;2023-02-17T15:30:49;3.58;;;1.10;;
73776;SDS011;62088;50.240;2.696;2023-02-17T15:33:18;2.70;;;1.00;;
73776;SDS011;62088;50.240;2.696;2023-02-17T15:35:47;5.38;;;1.40;;
73776;SDS011;62088;50.240;2.696;2023-02-17T15:38:18;2.50;;;0.90;;
73776;SDS011;62088;50.240;2.696;2023-02-17T15:40:46;3.95;;;1.35;;
73776;SDS011;62088;50.240;2.696;2023-02-17T15:43:18;4.15;;;1.15;;
73776;SDS011;62088;50.240;2.696;2023-02-17T15:45:48;4.03;;;0.98;;
73776;SDS011;62088;50.240;2.696;2023-02-17T15:48:25;3.63;;;1.13;;
73776;SDS011;62088;50.240;2.696;2023-02-17T15:50:55;3.55;;;1.13;;
73776;SDS011;62088;50.240;2.696;2023-02-17T15:53:22;3.28;;;1.00;;
73776;SDS011;62088;50.240;2.696;2023-02-17T15:55:49;3.53;;;1.17;;
73776;SDS011;62088;50.240;2.696;2023-02-17T15:58:18;5.50;;;1.20;;
73776;SDS011;62088;50.240;2.696;2023-02-17T16:00:47;4.93;;;1.10;;
73776;SDS011;62088;50.240;2.696;2023-02-17T16:03:16;3.58;;;1.20;;
73776;SDS011;62088;50.240;2.696;2023-02-17T16:05:44;3.25;;;0.98;;
73776;SDS011;62088;50.240;2.696;2023-02-17T16:08:11;3.58;;;1.15;;
73776;SDS011;62088;50.240;2.696;2023-02-17T16:10:38;5.25;;;1.15;;
73776;SDS011;62088;50.240;2.696;2023-02-17T16:13:08;5.53;;;1.20;;
73776;SDS011;62088;50.240;2.696;2023-02-17T16:15:40;4.25;;;1.27;;
73776;SDS011;62088;50.240;2.696;2023-02-17T16:18:21;4.85;;;1.17;;
73776;SDS011;62088;50.240;2.696;2023-02-17T16:20:49;5.72;;;1.02;;
73776;SDS011;62088;50.240;2.696;2023-02-17T16:23:17;4.65;;;1.23;;
73776;SDS011;62088;50.240;2.696;2023-02-17T16:25:44;5.07;;;1.30;;
73776;SDS011;62088;50.240;2.696;2023-02-17T16:28:16;6.13;;;1.08;;
73776;SDS011;62088;50.240;2.696;2023-02-17T16:30:45;3.13;;;0.90;;
73776;SDS011;62088;50.240;2.696;2023-02-17T16:33:15;3.40;;;1.00;;
73776;SDS011;62088;50.240;2.696;2023-02-17T16:35:43;5.97;;;1.50;;
73776;SDS011;62088;50.240;2.696;2023-02-17T16:38:23;3.13;;;1.27;;
73776;SDS011;62088;50.240;2.696;2023-02-17T16:40:50;5.47;;;1.10;;
73776;SDS011;62088;50.240;2.696;2023-02-17T16:43:19;3.20;;;1.10;;
73776;SDS011;62088;50.240;2.696;2023-02-17T16:45:52;4.00;;;1.10;;
73776;SDS011;62088;50.240;2.696;2023-02-17T16:48:22;6.95;;;1.73;;
73776;SDS011;62088;50.240;2.696;2023-02-17T16:50:50;4.07;;;1.02;;
73776;SDS011;62088;50.240;2.696;2023-02-17T16:53:17;4.25;;;1.40;;
73776;SDS011;62088;50.240;2.696;2023-02-17T16:55:45;4.03;;;1.08;;
73776;SDS011;62088;50.240;2.696;2023-02-17T16:58:19;4.88;;;0.98;;